createdAt,value
2022-10-18T00:10:34.656Z,72.02
2022-10-18T00:22:35.103Z,76.87
2022-10-18T00:34:35.539Z,73.59
2022-10-18T00:46:36.004Z,76.05
2022-10-18T00:58:36.469Z,73.08
2022-10-18T01:10:36.935Z,72.87
2022-10-18T01:22:37.363Z,72.14
2022-10-18T01:34:37.815Z,74.20
2022-10-18T01:46:38.247Z,75.23
2022-10-18T01:58:38.736Z,73.46
2022-10-18T02:10:39.164Z,72.46
2022-10-18T02:22:39.617Z,74.34
2022-10-18T02:34:40.121Z,70.64
2022-10-18T02:46:40.528Z,72.30
2022-10-18T02:58:40.974Z,73.21
2022-10-18T03:10:41.406Z,70.34
2022-10-18T03:22:41.917Z,71.78
2022-10-18T03:34:42.358Z,69.13
2022-10-18T03:46:42.802Z,68.40
2022-10-18T03:58:43.246Z,69.00
2022-10-18T04:10:43.718Z,69.72
2022-10-18T04:22:44.134Z,68.38
2022-10-18T04:34:44.669Z,68.91
2022-10-18T04:46:45.092Z,69.96
2022-10-18T04:58:45.549Z,68.01
2022-10-18T05:10:45.976Z,67.93
2022-10-18T05:22:46.417Z,69.81
2022-10-18T05:34:46.881Z,68.82
2022-10-18T05:46:47.351Z,68.58
2022-10-18T05:58:47.817Z,67.28
2022-10-18T06:10:48.198Z,68.58
2022-10-18T06:22:48.661Z,67.74
2022-10-18T06:34:49.169Z,67.50
2022-10-18T06:46:49.633Z,67.59
2022-10-18T06:58:50.082Z,67.75
2022-10-18T07:10:50.494Z,70.28
2022-10-18T07:22:50.962Z,70.75
2022-10-18T07:34:51.416Z,71.51
2022-10-18T07:46:51.868Z,71.28
2022-10-18T07:58:52.355Z,68.34
2022-10-18T08:10:52.770Z,66.53
2022-10-18T08:22:55.478Z,63.80
2022-10-18T08:34:53.704Z,59.40
2022-10-18T08:46:54.112Z,54.09
2022-10-18T08:58:54.570Z,52.47
2022-10-18T09:10:55.025Z,52.65
2022-10-18T09:22:55.497Z,51.78
2022-10-18T09:34:55.975Z,50.43
2022-10-18T09:46:56.435Z,49.26
2022-10-18T09:58:56.854Z,49.08
2022-10-18T10:10:57.305Z,46.66
2022-10-18T10:22:57.767Z,45.42
2022-10-18T10:34:58.245Z,45.85
2022-10-18T10:46:58.696Z,43.28
2022-10-18T10:58:59.183Z,43.59
2022-10-18T11:10:59.592Z,41.31
2022-10-18T11:23:00.056Z,43.05
2022-10-18T11:35:00.537Z,43.97
2022-10-18T11:47:00.969Z,44.34
2022-10-18T11:59:01.379Z,45.12
2022-10-18T12:11:05.887Z,45.07
2022-10-18T12:23:02.347Z,44.99
2022-10-18T12:35:02.782Z,44.51
2022-10-18T12:47:03.254Z,44.87
2022-10-18T12:59:03.701Z,43.87
2022-10-18T13:11:04.196Z,42.20
2022-10-18T13:23:04.676Z,42.57
2022-10-18T13:35:05.069Z,41.17
2022-10-18T13:47:05.553Z,43.98
2022-10-18T13:59:14.305Z,45.86
2022-10-18T14:11:06.453Z,47.96
2022-10-18T14:23:06.909Z,51.08
2022-10-18T14:35:30.987Z,54.39
2022-10-18T14:47:07.830Z,55.31
2022-10-18T14:59:08.263Z,56.71
2022-10-18T15:11:11.841Z,58.97
2022-10-18T15:23:09.169Z,58.04
2022-10-18T15:35:09.645Z,58.83
2022-10-18T15:47:10.114Z,61.04
2022-10-18T15:59:10.560Z,62.42
2022-10-18T16:11:11.012Z,63.96
2022-10-18T16:23:11.469Z,62.74
2022-10-18T16:35:11.937Z,62.80
2022-10-18T16:47:12.391Z,62.92
2022-10-18T16:59:12.848Z,63.68
2022-10-18T17:11:13.313Z,65.52
2022-10-18T17:23:13.752Z,63.76
2022-10-18T17:35:14.145Z,63.86
2022-10-18T17:47:14.659Z,64.65
2022-10-18T17:59:15.120Z,66.39
2022-10-18T18:11:15.572Z,65.49
2022-10-18T18:23:15.993Z,64.96
2022-10-18T18:35:16.468Z,66.12
2022-10-18T18:59:17.400Z,65.76
2022-10-18T19:11:17.833Z,67.42
2022-10-18T19:23:18.388Z,69.15
2022-10-18T19:35:18.716Z,66.40
2022-10-18T19:47:19.194Z,66.49
2022-10-18T19:59:19.623Z,67.20
2022-10-18T20:11:20.111Z,67.77
2022-10-18T20:23:20.576Z,68.97
2022-10-18T20:35:21.010Z,71.90
2022-10-18T20:47:21.436Z,67.88
2022-10-18T20:59:21.930Z,72.12
2022-10-18T21:11:22.391Z,71.97
2022-10-18T21:23:22.816Z,72.72
2022-10-18T21:35:23.281Z,69.70
2022-10-18T21:47:23.738Z,75.08
2022-10-18T21:59:24.218Z,73.86
2022-10-18T22:11:24.642Z,74.34
2022-10-18T22:23:25.059Z,70.93
2022-10-18T22:35:25.577Z,72.06
2022-10-18T22:47:26.013Z,69.31
2022-10-18T22:59:26.443Z,69.58
2022-10-18T23:11:26.904Z,72.21
2022-10-18T23:23:27.345Z,71.22
2022-10-18T23:35:27.830Z,75.28
2022-10-18T23:47:28.317Z,74.93
2022-10-18T23:59:28.730Z,72.59
